Airport View

Enter AWOS ICAO identifier for current METAR.

ex. KFNL

KSLH 262235Z AUTO 33007KT 10SM BKN120 M05/M14 A2999 RMK AO2 T10471139

26 Feb 2020 22:54

Frequency: 118.175

Phone: 231-627-4671

Other Area AWOS: KPLN - KMCD - KMGN - KPZQ

TAF KPLN 261730Z 2618/2718 03010KT P6SM SKC FM262100 01010KT P6SM VCSH OVC035 FM270600 34009KT P6SM SCT029 FM270900 33011KT P6SM VCSH BKN045 FM271200 32014KT P6SM BKN030 FM271500 32016G25KT P6SM BKN045